Al Aqiq, Saudi Arabia
Current Conditions -  °F | °C
As of 5:00 AM on Thursday 23 Oct 2014 (Local Time) from OEBA Reporting Station
Clear Clear  
Wind Chill: 64°   Ceiling: Unl
Heat Index: 64°   Visibility: 6mi
Dew Point: 34°   Wind: 2mph
Humidity: 32%   Direction: 180°S
Pressure: 30.21"   Gusts: NA
Location:  20.26°N, 41.67°E
Report Text: OEBA 230200Z 18002KT CAVOK 18/01 Q1023 NOSIG
Loading
Personal Weather Stations






























Interactive Weather Map
Tropical Storm Tracking
New forecast layout! Learn more

10-Day Weather Forecast

Advertisements
Track Severe Weather on mobile